createdAt,value
2022-12-04T00:01:45.644Z,3.32
2022-12-04T00:06:47.723Z,3.38
2022-12-04T00:11:49.944Z,3.32
2022-12-04T00:16:52.216Z,3.35
2022-12-04T00:21:54.439Z,3.34
2022-12-04T00:26:56.606Z,3.21
2022-12-04T00:31:58.779Z,3.07
2022-12-04T00:37:00.981Z,2.95
2022-12-04T00:42:03.139Z,2.94
2022-12-04T00:47:05.269Z,3.23
2022-12-04T00:52:07.386Z,3.09
2022-12-04T00:57:09.634Z,2.91
2022-12-04T01:02:11.764Z,2.86
2022-12-04T01:07:13.889Z,2.93
2022-12-04T01:12:20.498Z,3.12
2022-12-04T01:17:23.339Z,3.26
2022-12-04T01:22:25.412Z,3.37
2022-12-04T01:27:27.463Z,3.43
2022-12-04T01:32:29.553Z,3.76
2022-12-04T01:37:32.250Z,4.14
2022-12-04T01:42:34.815Z,4.20
2022-12-04T01:47:36.903Z,4.38
2022-12-04T01:52:39.573Z,4.52
2022-12-04T01:57:42.709Z,4.63
2022-12-04T02:02:48.534Z,4.67
2022-12-04T02:07:53.620Z,4.47
2022-12-04T02:13:11.640Z,4.13
2022-12-04T02:18:39.931Z,3.68
2022-12-04T02:23:57.159Z,3.30
2022-12-04T02:29:02.336Z,3.20
2022-12-04T02:34:14.023Z,2.97
2022-12-04T02:39:34.691Z,2.74
2022-12-04T02:44:45.443Z,2.60
2022-12-04T02:49:53.282Z,2.44
2022-12-04T02:55:07.992Z,2.45
2022-12-04T03:00:11.217Z,2.43
2022-12-04T03:05:18.528Z,2.79
2022-12-04T03:10:38.482Z,2.69
2022-12-04T03:15:46.678Z,2.39
2022-12-04T03:20:55.038Z,2.12
2022-12-04T03:26:02.952Z,2.01
2022-12-04T03:31:09.476Z,2.04
2022-12-04T03:36:40.913Z,1.94
2022-12-04T03:41:55.618Z,1.95
2022-12-04T03:47:20.568Z,1.83
2022-12-04T03:52:37.116Z,1.79
2022-12-04T03:57:44.101Z,1.80
2022-12-04T04:02:55.934Z,2.02
2022-12-04T04:08:21.641Z,2.12
2022-12-04T04:13:51.124Z,2.25
2022-12-04T04:19:13.604Z,2.43
2022-12-04T04:24:29.081Z,2.75
2022-12-04T04:29:31.366Z,2.99
2022-12-04T04:34:48.206Z,3.14
2022-12-04T04:39:53.577Z,3.22
2022-12-04T04:45:17.884Z,3.28
2022-12-04T04:50:21.239Z,3.35
2022-12-04T04:55:24.034Z,3.36
2022-12-04T05:00:26.197Z,3.52
2022-12-04T05:05:28.390Z,3.65
2022-12-04T05:10:30.501Z,3.74
2022-12-04T05:15:32.614Z,3.80
2022-12-04T05:20:38.287Z,3.78
2022-12-04T05:25:40.389Z,3.75
2022-12-04T05:30:42.664Z,3.51
2022-12-04T05:35:44.742Z,3.41
2022-12-04T05:40:46.790Z,3.34
2022-12-04T05:45:48.855Z,3.30
2022-12-04T05:50:50.961Z,3.11
2022-12-04T05:55:57.917Z,2.83
2022-12-04T06:00:59.997Z,2.63
2022-12-04T06:06:02.088Z,2.51
2022-12-04T06:11:13.915Z,2.42
2022-12-04T06:16:27.701Z,2.22
2022-12-04T06:21:33.881Z,2.18
2022-12-04T06:26:36.034Z,2.02
2022-12-04T06:31:39.174Z,1.94
2022-12-04T06:36:41.402Z,1.97
2022-12-04T06:41:43.582Z,2.04
2022-12-04T06:46:47.370Z,2.11
2022-12-04T06:51:50.205Z,2.20
2022-12-04T06:56:52.330Z,2.22
2022-12-04T07:01:54.437Z,2.23
2022-12-04T07:06:56.742Z,2.26
2022-12-04T07:11:58.853Z,2.28
2022-12-04T07:17:01.030Z,2.35
2022-12-04T07:22:03.238Z,2.32
2022-12-04T07:27:05.622Z,2.46
2022-12-04T07:32:07.761Z,2.56
2022-12-04T07:37:09.872Z,2.68
2022-12-04T07:42:11.952Z,2.81
2022-12-04T07:47:14.123Z,3.05
2022-12-04T07:52:16.225Z,3.17
2022-12-04T07:57:18.305Z,3.33
2022-12-04T08:02:20.989Z,3.53
2022-12-04T08:07:23.205Z,3.67
2022-12-04T08:12:25.456Z,3.93
2022-12-04T08:17:27.938Z,4.14
2022-12-04T08:22:30.092Z,4.29
2022-12-04T08:27:32.304Z,4.55
2022-12-04T08:32:34.495Z,4.86
2022-12-04T08:37:36.644Z,5.25
2022-12-04T08:42:38.717Z,5.56
2022-12-04T08:47:40.798Z,5.99
2022-12-04T08:52:42.935Z,6.26
2022-12-04T08:57:45.029Z,6.45
2022-12-04T09:02:49.870Z,6.63
2022-12-04T09:07:52.010Z,6.80
2022-12-04T09:12:54.148Z,6.98
2022-12-04T09:17:56.251Z,7.20
2022-12-04T09:23:05.687Z,7.56
2022-12-04T09:28:07.911Z,7.79
2022-12-04T09:33:10.038Z,7.75
2022-12-04T09:38:12.158Z,7.83
2022-12-04T09:43:28.021Z,7.96
2022-12-04T09:48:36.002Z,8.65
2022-12-04T09:53:56.589Z,9.07
2022-12-04T09:59:08.910Z,9.47
2022-12-04T10:04:12.250Z,11.61
2022-12-04T10:09:22.696Z,13.63
2022-12-04T10:14:58.534Z,14.32
2022-12-04T10:20:15.554Z,15.55
2022-12-04T10:25:23.553Z,15.86
2022-12-04T10:30:32.488Z,16.49
2022-12-04T10:35:36.628Z,17.23
2022-12-04T10:40:48.999Z,18.47
2022-12-04T10:45:52.023Z,18.60
2022-12-04T10:50:54.145Z,16.79
2022-12-04T10:55:56.319Z,17.03
2022-12-04T11:01:05.218Z,17.87
2022-12-04T11:06:09.792Z,17.16
2022-12-04T11:11:16.480Z,17.70
2022-12-04T11:16:34.087Z,16.15
2022-12-04T11:21:38.726Z,18.32
2022-12-04T11:26:42.733Z,18.52
2022-12-04T11:31:53.224Z,18.59
2022-12-04T11:36:57.197Z,18.61
2022-12-04T11:42:13.430Z,17.78
2022-12-04T11:47:21.066Z,17.63
2022-12-04T11:53:04.975Z,16.91
2022-12-04T11:58:57.389Z,15.50
2022-12-04T12:04:38.370Z,15.23
2022-12-04T12:09:53.418Z,14.19
2022-12-04T12:15:10.405Z,14.59
2022-12-04T12:20:27.732Z,14.23
2022-12-04T12:25:59.001Z,14.19
2022-12-04T12:31:09.855Z,13.66
2022-12-04T12:36:14.329Z,13.32
2022-12-04T12:41:21.897Z,12.87
2022-12-04T12:46:34.641Z,12.50
2022-12-04T12:51:50.725Z,12.36
2022-12-04T12:56:57.429Z,12.03
2022-12-04T13:02:36.784Z,12.14
2022-12-04T13:07:51.049Z,12.58
2022-12-04T13:13:07.849Z,12.75
2022-12-04T13:18:23.284Z,12.49
2022-12-04T13:23:37.651Z,11.98
2022-12-04T13:28:48.860Z,12.26
2022-12-04T13:34:29.360Z,10.94
2022-12-04T13:40:03.768Z,9.82
2022-12-04T13:45:24.705Z,9.17
2022-12-04T13:50:38.864Z,9.08
2022-12-04T13:55:41.064Z,8.94
2022-12-04T14:00:44.141Z,8.79
2022-12-04T14:05:47.698Z,8.63
2022-12-04T14:11:23.765Z,8.55
2022-12-04T14:16:39.080Z,8.43
2022-12-04T14:21:43.981Z,8.29
2022-12-04T14:32:21.493Z,8.13
2022-12-04T14:37:29.178Z,8.09
2022-12-04T14:42:38.193Z,8.09
2022-12-04T14:47:46.219Z,8.03
2022-12-04T14:52:51.327Z,8.02
2022-12-04T14:58:25.109Z,7.89
2022-12-04T15:03:30.089Z,7.85
2022-12-04T15:08:32.507Z,7.87
2022-12-04T15:13:37.524Z,7.82
2022-12-04T15:18:39.935Z,7.86
2022-12-04T15:23:42.139Z,7.97
2022-12-04T15:28:50.429Z,7.95
2022-12-04T15:33:55.401Z,7.89
2022-12-04T15:38:59.611Z,8.00
2022-12-04T15:44:02.258Z,8.40
2022-12-04T15:49:16.988Z,8.15
2022-12-04T15:54:24.817Z,8.02
2022-12-04T15:59:28.823Z,7.87
2022-12-04T16:04:35.538Z,7.74
2022-12-04T16:09:37.635Z,7.67
2022-12-04T16:14:39.747Z,7.68
2022-12-04T16:19:42.538Z,7.63
2022-12-04T16:24:45.288Z,7.59
2022-12-04T16:29:47.433Z,7.38
2022-12-04T16:34:49.601Z,7.34
2022-12-04T16:39:51.757Z,7.34
2022-12-04T16:44:54.601Z,7.38
2022-12-04T16:49:56.908Z,7.51
2022-12-04T16:55:04.248Z,7.49
2022-12-04T17:00:07.935Z,7.56
2022-12-04T17:05:23.012Z,7.59
2022-12-04T17:10:25.544Z,7.63
2022-12-04T17:15:27.653Z,7.58
2022-12-04T17:20:31.706Z,7.56
2022-12-04T17:25:33.855Z,7.53
2022-12-04T17:30:36.667Z,7.48
2022-12-04T17:35:43.788Z,7.51
2022-12-04T17:40:46.106Z,7.49
2022-12-04T17:45:48.222Z,7.47
2022-12-04T17:50:50.755Z,7.46
2022-12-04T17:55:52.961Z,7.39
2022-12-04T18:00:55.208Z,7.41
2022-12-04T18:05:57.483Z,7.33
2022-12-04T18:11:04.079Z,7.40
2022-12-04T18:16:09.512Z,7.36
2022-12-04T18:21:12.321Z,7.37
2022-12-04T18:26:19.521Z,7.33
2022-12-04T18:31:22.329Z,7.30
2022-12-04T18:36:30.785Z,7.36
2022-12-04T18:41:33.208Z,7.26
2022-12-04T18:46:35.619Z,7.19
2022-12-04T18:51:40.368Z,7.17
2022-12-04T18:56:42.744Z,7.09
2022-12-04T19:01:45.489Z,7.10
2022-12-04T19:06:55.624Z,7.06
2022-12-04T19:11:57.900Z,7.02
2022-12-04T19:17:00.013Z,7.03
2022-12-04T19:22:02.326Z,6.97
2022-12-04T19:27:11.161Z,6.95
2022-12-04T19:32:14.071Z,6.93
2022-12-04T19:37:17.138Z,6.90
2022-12-04T19:42:19.315Z,7.00
2022-12-04T19:47:21.387Z,6.93
2022-12-04T19:52:23.770Z,6.86
2022-12-04T19:57:25.866Z,6.79
2022-12-04T20:02:28.035Z,6.81
2022-12-04T20:07:30.210Z,6.82
2022-12-04T20:12:32.381Z,6.84
2022-12-04T20:17:34.507Z,6.85
2022-12-04T20:22:37.000Z,6.76
2022-12-04T20:27:39.131Z,6.75
2022-12-04T20:32:41.193Z,6.78
2022-12-04T20:37:43.350Z,6.73
2022-12-04T20:42:45.454Z,6.62
2022-12-04T20:47:47.634Z,6.52
2022-12-04T20:52:49.782Z,6.43
2022-12-04T20:57:52.025Z,6.40
2022-12-04T21:02:54.309Z,6.43
2022-12-04T21:07:56.532Z,6.36
2022-12-04T21:13:17.243Z,6.28
2022-12-04T21:18:19.381Z,6.29
2022-12-04T21:23:21.571Z,6.34
2022-12-04T21:28:24.302Z,6.24
2022-12-04T21:33:26.451Z,6.28
2022-12-04T21:38:29.060Z,6.26
2022-12-04T21:43:32.582Z,6.23
2022-12-04T21:48:36.439Z,6.25
2022-12-04T21:53:42.411Z,6.24
2022-12-04T21:58:44.800Z,6.19
2022-12-04T22:03:47.049Z,6.16
2022-12-04T22:08:49.494Z,6.16
2022-12-04T22:13:51.553Z,6.14
2022-12-04T22:18:55.528Z,6.08
2022-12-04T22:24:02.629Z,6.03
2022-12-04T22:29:20.788Z,6.01
2022-12-04T22:34:27.151Z,5.94
2022-12-04T22:39:29.247Z,5.89
2022-12-04T22:44:31.337Z,5.92
2022-12-04T22:49:33.627Z,5.86
2022-12-04T22:54:35.736Z,5.83
2022-12-04T22:59:38.448Z,5.83
2022-12-04T23:04:42.646Z,5.83
2022-12-04T23:09:44.850Z,5.76
2022-12-04T23:14:46.961Z,5.66
2022-12-04T23:19:49.130Z,5.63
2022-12-04T23:24:51.263Z,5.64
2022-12-04T23:29:53.908Z,5.55
2022-12-04T23:34:56.169Z,5.53
2022-12-04T23:39:58.413Z,5.64
2022-12-04T23:45:00.637Z,5.70
2022-12-04T23:50:03.731Z,5.75
2022-12-04T23:55:06.421Z,5.61
